Skip Navigation Links
NOAA logo - Click to go to the NOAA homepage
NOAA's National Weather Service
Alaska Aviation Weather Unit
  NWS logo - Click to go to the NWS homepage
Left Navbar Graphic     09 AKDT = 17 GMT

   
NOAA is celebrating 200 years of science, service, and stewardship. Visit the NOAA 200th celebration Web site to learn more.
USA.gov is the U.S. Government's official Web portal to all Federal, state and local government Web resources and services.
Facebook
NWS on Facebook

Important Change Regarding the AAWU Web Presence

 

Over the last several months, the AAWU has been working to navigate its webpages to a nationally supported server. Security, as well as other needs, have necessitated the change.  In the process, we have made an effort to enhance the functionality of our website, as well as some of our products. As of June 20, 2017, aawu.arh.noaa.gov will be discontinued. The new AAWU web address is weather.gov/aawu. It is now live and will run in-parallel with the old site until it is discontinued. Please send any feedback or questions regarding the new webpages to nws.ar.aawu.webauthors@noaa.gov.  Thank you for your patience during this time of transition.
AAWU Home :: Display TAF Add Bookmark
TAF PAOT 231127Z 2312/2412 19004KT P6SM FEW090 SCT110
     FM231500 21006KT 6SM -RA BKN035 OVC050
     FM232300 20008KT P6SM BKN050=
METAR PAOT 231153Z 00000KT 10SM SCT095 03/M01 A2968=

METAR PAOT 231253Z 20003KT 10SM OVC090 02/M01 A2968=

METAR PAOT 231353Z 22009KT 10SM OVC090 02/00 A2970=

METAR PAOT 231453Z 23006KT 10SM OVC080 02/00 A2970=

METAR PAOT 231553Z 00000KT 10SM OVC046 02/00 A2971=

PAOT 231643Z 20003KT 7SM -RA BKN028 OVC037 02/01 A2972=

SPECI PAOT 231643Z 20003KT 7SM -RA BKN028 OVC037 02/01 A2972 RMK AO2
 RAB1554 P0003 T00220011 $=

PAOT 231650Z 21005KT 6SM -RA BR SCT006 BKN027 OVC040 02/01 A2973=

SPECI PAOT 231650Z 21005KT 6SM -RA BR SCT006 BKN027 OVC040 02/01 A2973
     RMK AO2 RAB1554 P0003 $=

METAR PAOT 231653Z 20004KT 5SM RA BR SCT006 BKN027 OVC040 02/01 A2973
     RMK AO2 RAB1554 SLP067 P0003 T00220011 $=


NOAA's National Weather Service
Alaska Aviation Weather Unit
6930 Sand Lake Road
Anchorage, AK 99502-1845
Disclaimer
Credits
Glossary
Privacy Policy
About Us
Career Opportunities
Contact AAWU Internet Services Site last modified: April, 17th 2012